createdAt,value
2023-05-11T00:00:03.429Z,101852.16
2023-05-11T00:02:31.204Z,101853.59
2023-05-11T00:04:59.035Z,101850.78
2023-05-11T00:07:26.812Z,101847.63
2023-05-11T00:09:54.410Z,101850.06
2023-05-11T00:12:21.770Z,101860.47
2023-05-11T00:14:49.748Z,101845.91
2023-05-11T00:17:18.972Z,101859.31
2023-05-11T00:19:46.632Z,101858.69
2023-05-11T00:22:14.123Z,101860.63
2023-05-11T00:24:41.474Z,101857.69
2023-05-11T00:27:08.799Z,101854.69
2023-05-11T00:29:36.212Z,101858.34
2023-05-11T00:32:03.573Z,101853.91
2023-05-11T00:34:32.109Z,101858.69
2023-05-11T00:36:59.512Z,101857.78
2023-05-11T00:39:26.895Z,101860.47
2023-05-11T00:41:54.283Z,101858.31
2023-05-11T00:44:21.768Z,101860.25
2023-05-11T00:46:49.443Z,101861.06
2023-05-11T00:49:17.593Z,101862.88
2023-05-11T00:51:45.044Z,101857.91
2023-05-11T00:54:15.606Z,101863.97
2023-05-11T00:56:43.136Z,101862.16
2023-05-11T00:59:10.608Z,101867.44
2023-05-11T01:01:41.324Z,101857.97
2023-05-11T01:04:09.341Z,101860.47
2023-05-11T01:07:01.236Z,101853.63
2023-05-11T01:10:00.162Z,101859.56
2023-05-11T01:12:33.457Z,101856.09
2023-05-11T01:15:11.127Z,101856.22
2023-05-11T01:17:49.292Z,101858.09
2023-05-11T01:20:21.686Z,101858.97
2023-05-11T01:23:19.759Z,101856.16
2023-05-11T01:26:05.169Z,101854.25
2023-05-11T01:28:51.368Z,101858.72
2023-05-11T01:31:20.877Z,101856.06
2023-05-11T01:33:58.634Z,101852.00
2023-05-11T01:36:31.631Z,101855.47
2023-05-11T01:39:03.028Z,101858.13
2023-05-11T01:41:34.152Z,101855.66
2023-05-11T01:44:06.419Z,101852.13
2023-05-11T01:46:35.141Z,101853.63
2023-05-11T01:49:07.593Z,101855.09
2023-05-11T01:51:42.178Z,101859.22
2023-05-11T01:54:11.533Z,101859.34
2023-05-11T01:56:41.606Z,101861.81
2023-05-11T01:59:10.894Z,101861.28
2023-05-11T02:01:41.141Z,101859.72
2023-05-11T02:04:09.906Z,101854.69
2023-05-11T02:06:39.584Z,101856.00
2023-05-11T02:09:09.545Z,101857.34
2023-05-11T02:11:40.478Z,101855.75
2023-05-11T02:14:10.322Z,101857.03
2023-05-11T02:16:39.148Z,101861.16
2023-05-11T02:19:08.068Z,101857.81
2023-05-11T02:21:38.188Z,101862.69
2023-05-11T02:24:06.961Z,101863.47
2023-05-11T02:26:34.700Z,101860.59
2023-05-11T02:29:02.268Z,101858.63
2023-05-11T02:31:32.686Z,101865.94
2023-05-11T02:34:07.991Z,101855.50
2023-05-11T02:36:39.071Z,101869.19
2023-05-11T02:39:09.662Z,101869.84
2023-05-11T02:41:43.524Z,101866.44
2023-05-11T02:44:15.972Z,101867.16
2023-05-11T02:46:47.880Z,101864.63
2023-05-11T02:49:18.628Z,101871.78
2023-05-11T02:51:48.754Z,101864.50
2023-05-11T02:54:17.596Z,101873.44
2023-05-11T02:56:45.738Z,101869.06
2023-05-11T02:59:14.492Z,101873.66
2023-05-11T03:01:42.227Z,101873.38
2023-05-11T03:04:11.656Z,101884.91
2023-05-11T03:06:40.184Z,101875.09
2023-05-11T03:09:09.944Z,101876.78
2023-05-11T03:11:38.067Z,101881.25
2023-05-11T03:14:05.780Z,101886.78
2023-05-11T03:16:35.210Z,101878.84
2023-05-11T03:19:05.807Z,101884.66
2023-05-11T03:21:36.594Z,101888.06
2023-05-11T03:24:06.787Z,101884.41
2023-05-11T03:26:36.308Z,101892.03
2023-05-11T03:29:04.507Z,101894.19
2023-05-11T03:31:32.785Z,101896.78
2023-05-11T03:34:00.431Z,101900.97
2023-05-11T03:36:28.967Z,101901.63
2023-05-11T03:38:58.792Z,101904.22
2023-05-11T03:41:29.040Z,101904.56
2023-05-11T03:44:00.096Z,101906.53
2023-05-11T03:46:30.033Z,101898.41
2023-05-11T03:48:58.174Z,101894.94
2023-05-11T03:51:26.176Z,101901.03
2023-05-11T03:53:53.937Z,101901.50
2023-05-11T03:56:21.654Z,101903.06
2023-05-11T03:58:49.828Z,101904.94
2023-05-11T04:01:17.413Z,101900.41
2023-05-11T04:03:53.219Z,101905.78
2023-05-11T04:06:21.017Z,101908.28
2023-05-11T04:08:48.782Z,101914.09
2023-05-11T04:11:16.909Z,101905.06
2023-05-11T04:13:44.286Z,101908.75
2023-05-11T04:16:11.708Z,101911.72
2023-05-11T04:18:39.171Z,101903.38
2023-05-11T04:21:06.538Z,101909.47
2023-05-11T04:23:33.947Z,101910.72
2023-05-11T04:26:01.364Z,101909.31
2023-05-11T04:28:29.668Z,101909.88
2023-05-11T04:30:57.827Z,101918.59
2023-05-11T04:33:25.594Z,101922.69
2023-05-11T04:35:54.711Z,101922.53
2023-05-11T04:38:22.950Z,101921.41
2023-05-11T04:40:50.902Z,101925.31
2023-05-11T04:43:19.099Z,101919.59
2023-05-11T04:45:52.707Z,101918.13
2023-05-11T04:48:21.061Z,101919.81
2023-05-11T04:50:48.587Z,101919.59
2023-05-11T04:53:17.511Z,101923.13
2023-05-11T04:55:44.863Z,101928.47
2023-05-11T04:58:12.307Z,101921.09
2023-05-11T05:00:39.719Z,101916.19
2023-05-11T05:03:07.718Z,101916.22
2023-05-11T05:05:35.890Z,101912.13
2023-05-11T05:08:03.459Z,101913.28
2023-05-11T05:10:30.922Z,101917.81
2023-05-11T05:12:58.367Z,101912.53
2023-05-11T05:15:26.592Z,101910.72
2023-05-11T05:17:54.064Z,101905.88
2023-05-11T05:20:21.513Z,101906.03
2023-05-11T05:22:48.855Z,101907.25
2023-05-11T05:25:16.968Z,101912.44
2023-05-11T05:27:44.672Z,101910.25
2023-05-11T05:30:12.611Z,101905.66
2023-05-11T05:32:40.111Z,101912.00
2023-05-11T05:35:08.082Z,101910.91
2023-05-11T05:37:37.605Z,101909.28
2023-05-11T05:40:05.853Z,101915.78
2023-05-11T05:42:33.683Z,101910.59
2023-05-11T05:45:01.157Z,101908.22
2023-05-11T05:47:28.807Z,101903.69
2023-05-11T05:49:56.407Z,101908.91
2023-05-11T05:52:24.019Z,101914.63
2023-05-11T05:54:51.592Z,101909.38
2023-05-11T05:57:18.953Z,101909.91
2023-05-11T05:59:46.298Z,101914.63
2023-05-11T06:02:13.866Z,101905.81
2023-05-11T06:04:42.436Z,101907.97
2023-05-11T06:07:10.052Z,101906.59
2023-05-11T06:09:39.137Z,101909.97
2023-05-11T06:12:10.222Z,101906.44
2023-05-11T06:14:38.136Z,101902.34
2023-05-11T06:17:05.569Z,101901.47
2023-05-11T06:19:33.666Z,101901.75
2023-05-11T06:22:01.284Z,101898.13
2023-05-11T06:24:29.199Z,101901.66
2023-05-11T06:26:56.625Z,101898.28
2023-05-11T06:29:24.004Z,101900.81
2023-05-11T06:31:52.993Z,101897.25
2023-05-11T06:34:20.845Z,101898.94
2023-05-11T06:36:49.093Z,101899.44
2023-05-11T06:39:16.695Z,101895.75
2023-05-11T06:41:44.653Z,101898.00
2023-05-11T06:44:13.206Z,101896.72
2023-05-11T06:46:40.591Z,101899.91
2023-05-11T06:49:08.994Z,101898.66
2023-05-11T06:51:37.071Z,101902.25
2023-05-11T06:54:04.656Z,101898.81
2023-05-11T06:56:34.167Z,101900.78
2023-05-11T06:59:01.553Z,101895.56
2023-05-11T07:01:29.599Z,101897.97
2023-05-11T07:03:57.033Z,101902.09
2023-05-11T07:06:24.501Z,101904.63
2023-05-11T07:08:51.900Z,101907.78
2023-05-11T07:11:19.263Z,101896.97
2023-05-11T07:13:46.852Z,101897.44
2023-05-11T07:16:14.279Z,101899.97
2023-05-11T07:18:41.683Z,101903.34
2023-05-11T07:21:09.158Z,101899.09
2023-05-11T07:23:36.659Z,101899.38
2023-05-11T07:26:09.052Z,101894.28
2023-05-11T07:28:37.244Z,101891.50
2023-05-11T07:31:05.670Z,101892.34
2023-05-11T07:33:34.801Z,101895.13
2023-05-11T07:36:02.238Z,101895.44
2023-05-11T07:38:29.764Z,101902.25
2023-05-11T07:40:57.279Z,101903.09
2023-05-11T07:43:25.110Z,101900.97
2023-05-11T07:45:52.713Z,101899.34
2023-05-11T07:48:20.963Z,101891.53
2023-05-11T07:50:49.745Z,101888.28
2023-05-11T07:53:17.415Z,101888.03
2023-05-11T07:55:44.826Z,101891.38
2023-05-11T07:58:12.297Z,101893.06
2023-05-11T08:00:39.643Z,101889.97
2023-05-11T08:03:07.525Z,101886.91
2023-05-11T08:05:37.867Z,101889.44
2023-05-11T08:08:05.693Z,101888.22
2023-05-11T08:10:33.352Z,101888.81
2023-05-11T08:13:00.707Z,101889.44
2023-05-11T08:15:28.258Z,101880.59
2023-05-11T08:17:55.773Z,101880.00
2023-05-11T08:20:23.481Z,101894.09
2023-05-11T08:22:50.968Z,101890.69
2023-05-11T08:25:18.716Z,101894.69
2023-05-11T08:27:46.368Z,101892.78
2023-05-11T08:30:14.232Z,101885.22
2023-05-11T08:35:13.444Z,101882.66
2023-05-11T08:37:40.930Z,101888.94
2023-05-11T08:40:13.900Z,101894.78
2023-05-11T08:42:47.268Z,101888.06
2023-05-11T08:45:16.887Z,101883.22
2023-05-11T08:47:46.134Z,101882.91
2023-05-11T08:50:13.696Z,101886.09
2023-05-11T08:52:42.066Z,101876.97
2023-05-11T08:55:10.143Z,101883.63
2023-05-11T08:57:38.785Z,101885.94
2023-05-11T09:00:07.626Z,101872.78
2023-05-11T09:02:36.009Z,101865.19
2023-05-11T09:05:04.538Z,101875.13
2023-05-11T09:07:36.706Z,101872.06
2023-05-11T09:10:04.494Z,101877.59
2023-05-11T09:12:32.373Z,101868.66
2023-05-11T09:15:02.564Z,101881.59
2023-05-11T09:17:30.803Z,101857.56
2023-05-11T09:20:02.362Z,101870.38
2023-05-11T09:22:36.138Z,101861.88
2023-05-11T09:25:04.220Z,101876.97
2023-05-11T09:27:32.517Z,101865.94
2023-05-11T09:30:14.338Z,101859.63
2023-05-11T09:33:02.801Z,101859.97
2023-05-11T09:35:32.735Z,101860.47
2023-05-11T09:38:08.751Z,101872.63
2023-05-11T09:40:50.482Z,101862.81
2023-05-11T09:43:21.590Z,101866.56
2023-05-11T09:45:51.681Z,101861.25
2023-05-11T09:48:22.203Z,101866.41
2023-05-11T09:50:51.151Z,101867.31
2023-05-11T09:53:18.946Z,101862.84
2023-05-11T09:55:54.056Z,101862.09
2023-05-11T09:58:22.175Z,101868.41
2023-05-11T10:00:53.944Z,101868.06
2023-05-11T10:03:21.863Z,101870.78
2023-05-11T10:06:00.948Z,101865.53
2023-05-11T10:08:35.927Z,101863.22
2023-05-11T10:11:04.496Z,101867.41
2023-05-11T10:13:32.972Z,101858.00
2023-05-11T10:16:04.558Z,101867.66
2023-05-11T10:18:32.547Z,101860.94
2023-05-11T10:21:00.602Z,101859.91
2023-05-11T10:23:28.825Z,101858.00
2023-05-11T10:25:58.039Z,101857.56
2023-05-11T10:28:25.577Z,101860.91
2023-05-11T10:30:53.727Z,101853.06
2023-05-11T10:33:21.662Z,101846.72
2023-05-11T10:35:52.064Z,101850.06
2023-05-11T10:38:22.704Z,101849.94
2023-05-11T10:40:54.281Z,101852.75
2023-05-11T10:43:44.257Z,101852.72
2023-05-11T10:46:47.690Z,101849.78
2023-05-11T10:49:53.096Z,101851.75
2023-05-11T10:52:43.990Z,101855.34
2023-05-11T10:55:17.618Z,101852.59
2023-05-11T10:57:48.101Z,101851.38
2023-05-11T11:00:56.069Z,101856.53
2023-05-11T11:03:23.887Z,101850.63
2023-05-11T11:05:51.530Z,101849.41
2023-05-11T11:08:19.088Z,101848.53
2023-05-11T11:10:46.654Z,101857.84
2023-05-11T11:13:15.894Z,101849.50
2023-05-11T11:16:00.488Z,101854.25
2023-05-11T11:18:30.450Z,101857.81
2023-05-11T11:20:59.394Z,101854.06
2023-05-11T11:23:44.168Z,101866.38
2023-05-11T11:26:15.668Z,101858.38
2023-05-11T11:28:56.432Z,101868.06
2023-05-11T11:31:37.176Z,101863.84
2023-05-11T11:34:40.346Z,101869.53
2023-05-11T11:37:08.970Z,101869.34
2023-05-11T11:39:42.220Z,101865.53
2023-05-11T11:42:12.069Z,101871.44
2023-05-11T11:44:40.769Z,101864.66
2023-05-11T11:47:22.084Z,101860.31
2023-05-11T11:49:55.930Z,101859.06
2023-05-11T11:52:29.313Z,101853.81
2023-05-11T11:55:02.604Z,101857.19
2023-05-11T11:57:30.348Z,101848.78
2023-05-11T11:59:59.053Z,101846.66
2023-05-11T12:02:27.815Z,101851.69
2023-05-11T12:04:58.459Z,101849.00
2023-05-11T12:07:26.964Z,101849.84
2023-05-11T12:09:54.661Z,101843.72
2023-05-11T12:12:22.116Z,101842.25
2023-05-11T12:14:49.586Z,101836.59
2023-05-11T12:17:25.602Z,101839.13
2023-05-11T12:19:53.045Z,101840.19
2023-05-11T12:22:25.211Z,101837.00
2023-05-11T12:24:58.203Z,101832.81
2023-05-11T12:27:27.328Z,101828.81
2023-05-11T12:29:54.693Z,101834.66
2023-05-11T12:32:30.008Z,101837.00
2023-05-11T12:34:59.573Z,101832.31
2023-05-11T12:37:27.165Z,101830.94
2023-05-11T12:39:56.092Z,101831.44
2023-05-11T12:42:23.855Z,101827.78
2023-05-11T12:44:52.409Z,101829.03
2023-05-11T12:47:20.083Z,101828.28
2023-05-11T12:49:47.563Z,101830.78
2023-05-11T12:52:14.964Z,101838.44
2023-05-11T12:54:51.660Z,101834.03
2023-05-11T12:57:29.919Z,101844.13
2023-05-11T13:00:13.308Z,101843.53
2023-05-11T13:02:52.525Z,101830.34
2023-05-11T13:05:25.118Z,101831.81
2023-05-11T13:07:59.767Z,101835.50
2023-05-11T13:10:27.489Z,101838.44
2023-05-11T13:12:56.310Z,101833.59
2023-05-11T13:15:25.249Z,101840.91
2023-05-11T13:18:03.557Z,101836.88
2023-05-11T13:20:33.851Z,101841.06
2023-05-11T13:23:06.114Z,101838.47
2023-05-11T13:25:35.036Z,101835.69
2023-05-11T13:28:02.488Z,101836.00
2023-05-11T13:30:30.858Z,101839.28
2023-05-11T13:32:59.827Z,101832.16
2023-05-11T13:35:27.240Z,101833.44
2023-05-11T13:37:54.613Z,101830.56
2023-05-11T13:40:22.057Z,101837.19
2023-05-11T13:42:49.586Z,101832.28
2023-05-11T13:45:17.212Z,101838.88
2023-05-11T13:47:45.763Z,101838.66
2023-05-11T13:50:13.780Z,101838.22
2023-05-11T13:52:41.764Z,101837.41
2023-05-11T13:55:09.437Z,101842.50
2023-05-11T13:57:37.320Z,101834.50
2023-05-11T14:00:05.845Z,101829.78
2023-05-11T14:02:33.685Z,101834.44
2023-05-11T14:05:01.116Z,101831.44
2023-05-11T14:07:39.402Z,101824.25
2023-05-11T14:10:13.935Z,101830.97
2023-05-11T14:12:41.590Z,101825.78
2023-05-11T14:15:09.561Z,101836.53
2023-05-11T14:17:37.571Z,101833.44
2023-05-11T14:20:06.232Z,101825.47
2023-05-11T14:22:33.951Z,101828.63
2023-05-11T14:25:02.015Z,101830.75
2023-05-11T14:27:29.982Z,101828.03
2023-05-11T14:29:57.365Z,101824.00
2023-05-11T14:32:25.052Z,101822.28
2023-05-11T14:34:52.478Z,101820.16
2023-05-11T14:37:19.805Z,101824.28
2023-05-11T14:39:47.138Z,101816.31
2023-05-11T14:42:15.155Z,101817.59
2023-05-11T14:44:42.589Z,101823.63
2023-05-11T14:47:09.908Z,101825.38
2023-05-11T14:49:37.580Z,101828.91
2023-05-11T14:52:05.204Z,101829.06
2023-05-11T14:54:32.555Z,101836.09
2023-05-11T14:57:00.036Z,101836.53
2023-05-11T14:59:28.143Z,101839.84
2023-05-11T15:01:55.575Z,101843.13
2023-05-11T15:04:22.944Z,101848.56
2023-05-11T15:06:50.536Z,101835.22
2023-05-11T15:09:20.190Z,101840.03
2023-05-11T15:11:47.677Z,101834.97
2023-05-11T15:14:15.180Z,101843.53
2023-05-11T15:16:42.670Z,101841.06
2023-05-11T15:19:10.194Z,101836.81
2023-05-11T15:21:37.897Z,101848.09
2023-05-11T15:24:06.249Z,101837.69
2023-05-11T15:26:34.594Z,101837.25
2023-05-11T15:29:02.170Z,101844.34
2023-05-11T15:31:30.146Z,101841.44
2023-05-11T15:33:57.800Z,101840.78
2023-05-11T15:36:26.420Z,101844.28
2023-05-11T15:38:55.456Z,101844.34
2023-05-11T15:41:22.863Z,101843.41
2023-05-11T15:43:52.624Z,101855.97
2023-05-11T15:46:20.217Z,101851.66
2023-05-11T15:48:47.620Z,101848.88
2023-05-11T15:51:15.004Z,101855.81
2023-05-11T15:53:42.502Z,101856.84
2023-05-11T15:56:10.190Z,101852.03
2023-05-11T15:58:37.809Z,101851.09
2023-05-11T16:01:06.078Z,101859.38
2023-05-11T16:03:34.706Z,101859.78
2023-05-11T16:06:02.352Z,101854.72
2023-05-11T16:08:29.852Z,101854.25
2023-05-11T16:10:57.349Z,101855.25
2023-05-11T16:13:24.772Z,101857.63
2023-05-11T16:15:52.476Z,101853.00
2023-05-11T16:18:20.294Z,101858.84
2023-05-11T16:20:47.809Z,101856.75
2023-05-11T16:23:15.183Z,101852.66
2023-05-11T16:25:42.814Z,101856.66
2023-05-11T16:28:10.381Z,101861.59
2023-05-11T16:30:37.952Z,101862.22
2023-05-11T16:33:05.388Z,101857.69
2023-05-11T16:35:34.151Z,101854.09
2023-05-11T16:38:02.618Z,101864.53
2023-05-11T16:40:30.130Z,101868.94
2023-05-11T16:42:58.101Z,101866.50
2023-05-11T16:45:25.534Z,101869.44
2023-05-11T16:47:52.994Z,101869.16
2023-05-11T16:50:20.730Z,101868.22
2023-05-11T16:52:48.856Z,101874.31
2023-05-11T16:55:16.805Z,101869.53
2023-05-11T16:57:44.643Z,101875.81
2023-05-11T17:00:13.453Z,101877.41
2023-05-11T17:02:41.523Z,101878.63
2023-05-11T17:05:11.578Z,101882.75
2023-05-11T17:07:39.269Z,101883.00
2023-05-11T17:10:07.381Z,101884.84
2023-05-11T17:12:35.841Z,101887.66
2023-05-11T17:15:03.740Z,101893.81
2023-05-11T17:17:31.820Z,101891.06
2023-05-11T17:19:59.565Z,101889.97
2023-05-11T17:22:28.634Z,101890.38
2023-05-11T17:24:56.011Z,101899.78
2023-05-11T17:27:23.380Z,101899.97
2023-05-11T17:29:50.789Z,101905.94
2023-05-11T17:32:19.317Z,101896.31
2023-05-11T17:34:46.870Z,101902.66
2023-05-11T17:37:30.533Z,101898.09
2023-05-11T17:40:01.184Z,101905.41
2023-05-11T17:42:28.840Z,101906.34
2023-05-11T17:44:56.361Z,101911.84
2023-05-11T17:47:24.258Z,101905.47
2023-05-11T17:49:51.625Z,101912.09
2023-05-11T17:52:19.244Z,101916.69
2023-05-11T17:54:46.671Z,101916.69
2023-05-11T17:57:14.419Z,101918.59
2023-05-11T17:59:42.287Z,101914.03
2023-05-11T18:02:09.650Z,101917.59
2023-05-11T18:04:37.337Z,101921.13
2023-05-11T18:07:04.910Z,101928.28
2023-05-11T18:09:32.316Z,101918.13
2023-05-11T18:11:59.732Z,101928.13
2023-05-11T18:14:27.912Z,101936.91
2023-05-11T18:16:56.283Z,101935.03
2023-05-11T18:19:23.626Z,101934.06
2023-05-11T18:21:52.016Z,101934.22
2023-05-11T18:24:20.081Z,101937.75
2023-05-11T18:26:47.670Z,101939.63
2023-05-11T18:29:19.249Z,101938.97
2023-05-11T18:31:47.269Z,101939.97
2023-05-11T18:34:14.761Z,101940.31
2023-05-11T18:36:42.263Z,101942.69
2023-05-11T18:39:09.826Z,101943.50
2023-05-11T18:41:37.381Z,101941.34
2023-05-11T18:44:05.090Z,101937.94
2023-05-11T18:46:32.757Z,101945.53
2023-05-11T18:49:00.321Z,101942.66
2023-05-11T18:51:27.775Z,101939.47
2023-05-11T18:53:55.251Z,101945.72
2023-05-11T18:56:22.868Z,101936.72
2023-05-11T18:58:50.561Z,101941.13
2023-05-11T19:01:19.012Z,101939.63
2023-05-11T19:03:47.227Z,101945.19
2023-05-11T19:06:14.748Z,101941.28
2023-05-11T19:08:42.465Z,101948.69
2023-05-11T19:11:10.756Z,101942.28
2023-05-11T19:13:38.370Z,101946.16
2023-05-11T19:16:06.118Z,101949.03
2023-05-11T19:18:35.673Z,101950.03
2023-05-11T19:21:05.456Z,101951.25
2023-05-11T19:23:33.939Z,101952.88
2023-05-11T19:26:01.548Z,101954.91
2023-05-11T19:28:29.297Z,101949.03
2023-05-11T19:31:04.772Z,101956.47
2023-05-11T19:33:33.160Z,101954.63
2023-05-11T19:36:01.121Z,101955.97
2023-05-11T19:38:28.945Z,101961.69
2023-05-11T19:40:56.475Z,101966.75
2023-05-11T19:43:24.565Z,101955.28
2023-05-11T19:45:52.201Z,101959.34
2023-05-11T19:48:19.769Z,101956.28
2023-05-11T19:50:47.358Z,101950.91
2023-05-11T19:53:15.176Z,101951.59
2023-05-11T19:55:42.819Z,101949.06
2023-05-11T19:58:10.428Z,101947.56
2023-05-11T20:00:41.099Z,101953.97
2023-05-11T20:03:09.097Z,101947.03
2023-05-11T20:05:37.312Z,101948.88
2023-05-11T20:08:07.926Z,101949.03
2023-05-11T20:10:36.046Z,101948.50
2023-05-11T20:13:05.636Z,101943.78
2023-05-11T20:15:34.245Z,101948.97
2023-05-11T20:18:05.365Z,101946.44
2023-05-11T20:20:33.467Z,101948.13
2023-05-11T20:23:02.480Z,101945.19
2023-05-11T20:25:29.930Z,101941.41
2023-05-11T20:27:57.372Z,101950.50
2023-05-11T20:30:27.955Z,101956.88
2023-05-11T20:35:25.670Z,101953.97
2023-05-11T20:37:53.088Z,101943.16
2023-05-11T20:40:21.559Z,101956.66
2023-05-11T20:42:49.047Z,101958.09
2023-05-11T20:45:16.440Z,101948.78
2023-05-11T20:47:44.079Z,101960.19
2023-05-11T20:50:12.231Z,101952.69
2023-05-11T20:52:39.774Z,101952.84
2023-05-11T20:55:07.710Z,101952.00
2023-05-11T20:57:35.786Z,101947.56
2023-05-11T21:00:04.173Z,101955.63
2023-05-11T21:02:32.811Z,101956.59
2023-05-11T21:05:02.541Z,101956.06
2023-05-11T21:07:30.399Z,101953.50
2023-05-11T21:09:57.754Z,101959.91
2023-05-11T21:12:25.244Z,101952.13
2023-05-11T21:14:53.925Z,101959.00
2023-05-11T21:17:22.433Z,101958.47
2023-05-11T21:19:49.942Z,101956.53
2023-05-11T21:22:17.255Z,101963.66
2023-05-11T21:24:44.694Z,101958.06
2023-05-11T21:27:12.441Z,101953.75
2023-05-11T21:29:39.807Z,101954.97
2023-05-11T21:32:07.605Z,101954.88
2023-05-11T21:34:35.211Z,101953.03
2023-05-11T21:37:03.558Z,101956.34
2023-05-11T21:39:31.545Z,101958.22
2023-05-11T21:41:59.202Z,101946.72
2023-05-11T21:44:26.947Z,101954.72
2023-05-11T21:46:54.449Z,101950.03
2023-05-11T21:49:21.906Z,101955.66
2023-05-11T21:51:49.477Z,101958.88
2023-05-11T21:54:16.882Z,101954.09
2023-05-11T21:56:44.353Z,101956.19
2023-05-11T21:59:11.748Z,101955.22
2023-05-11T22:01:39.158Z,101950.00
2023-05-11T22:04:06.694Z,101960.94
2023-05-11T22:06:35.283Z,101958.03
2023-05-11T22:09:02.685Z,101955.84
2023-05-11T22:11:30.269Z,101954.59
2023-05-11T22:13:57.791Z,101960.69
2023-05-11T22:16:25.176Z,101953.97
2023-05-11T22:18:52.830Z,101946.22
2023-05-11T22:21:20.245Z,101952.91
2023-05-11T22:23:47.601Z,101956.88
2023-05-11T22:26:15.026Z,101956.72
2023-05-11T22:28:42.446Z,101958.28
2023-05-11T22:31:09.815Z,101961.81
2023-05-11T22:33:37.250Z,101958.63
2023-05-11T22:36:04.884Z,101951.69
2023-05-11T22:38:34.320Z,101956.66
2023-05-11T22:41:01.797Z,101964.72
2023-05-11T22:43:29.407Z,101957.69
2023-05-11T22:45:56.754Z,101954.44
2023-05-11T22:48:24.140Z,101957.53
2023-05-11T22:50:51.567Z,101958.69
2023-05-11T22:53:20.002Z,101959.28
2023-05-11T22:55:47.836Z,101951.50
2023-05-11T22:58:15.475Z,101954.91
2023-05-11T23:00:43.111Z,101954.47
2023-05-11T23:03:10.634Z,101957.06
2023-05-11T23:05:38.048Z,101960.59
2023-05-11T23:08:05.465Z,101954.19
2023-05-11T23:10:33.217Z,101955.06
2023-05-11T23:13:00.549Z,101957.31
2023-05-11T23:15:27.892Z,101959.59
2023-05-11T23:17:55.280Z,101960.41
2023-05-11T23:20:22.991Z,101958.72
2023-05-11T23:22:50.317Z,101965.25
2023-05-11T23:25:17.762Z,101960.44
2023-05-11T23:27:45.113Z,101953.66
2023-05-11T23:30:12.907Z,101962.69
2023-05-11T23:32:40.415Z,101960.44
2023-05-11T23:35:08.293Z,101958.84
2023-05-11T23:37:35.788Z,101958.47
2023-05-11T23:40:04.226Z,101960.56
2023-05-11T23:42:32.199Z,101955.34
2023-05-11T23:45:04.314Z,101958.44
2023-05-11T23:47:31.941Z,101952.09
2023-05-11T23:49:59.718Z,101962.13
2023-05-11T23:52:27.113Z,101961.84
2023-05-11T23:54:54.423Z,101959.31
2023-05-11T23:57:21.773Z,101952.25
2023-05-11T23:59:49.097Z,101952.38
